sensor_id;sensor_type;location;lat;lon;timestamp;P1;durP1;ratioP1;P2;durP2;ratioP2
63259;SDS011;49390;51.380;0.098;2023-07-24T00:00:40;5.00;;;2.80;;
63259;SDS011;49390;51.380;0.098;2023-07-24T00:03:28;6.03;;;2.70;;
63259;SDS011;49390;51.380;0.098;2023-07-24T00:05:59;6.30;;;3.00;;
63259;SDS011;49390;51.380;0.098;2023-07-24T00:08:27;5.68;;;3.10;;
63259;SDS011;49390;51.380;0.098;2023-07-24T00:10:58;7.23;;;3.20;;
63259;SDS011;49390;51.380;0.098;2023-07-24T00:13:26;7.18;;;2.72;;
63259;SDS011;49390;51.380;0.098;2023-07-24T00:15:54;6.82;;;3.10;;
63259;SDS011;49390;51.380;0.098;2023-07-24T00:18:22;7.20;;;3.10;;
63259;SDS011;49390;51.380;0.098;2023-07-24T00:20:49;8.88;;;3.42;;
63259;SDS011;49390;51.380;0.098;2023-07-24T00:23:18;7.85;;;3.20;;
63259;SDS011;49390;51.380;0.098;2023-07-24T00:25:46;5.85;;;2.78;;
63259;SDS011;49390;51.380;0.098;2023-07-24T00:28:16;5.65;;;3.08;;
63259;SDS011;49390;51.380;0.098;2023-07-24T00:30:44;8.43;;;2.92;;
63259;SDS011;49390;51.380;0.098;2023-07-24T00:33:12;6.95;;;3.05;;
63259;SDS011;49390;51.380;0.098;2023-07-24T00:35:40;7.43;;;3.20;;
63259;SDS011;49390;51.380;0.098;2023-07-24T00:38:08;7.20;;;2.95;;
63259;SDS011;49390;51.380;0.098;2023-07-24T00:40:36;6.57;;;3.10;;
63259;SDS011;49390;51.380;0.098;2023-07-24T00:43:05;8.07;;;3.10;;
63259;SDS011;49390;51.380;0.098;2023-07-24T00:45:34;6.30;;;3.17;;
63259;SDS011;49390;51.380;0.098;2023-07-24T00:48:04;6.80;;;2.78;;
63259;SDS011;49390;51.380;0.098;2023-07-24T00:50:32;9.07;;;3.22;;
63259;SDS011;49390;51.380;0.098;2023-07-24T00:53:00;6.93;;;2.60;;
63259;SDS011;49390;51.380;0.098;2023-07-24T00:55:28;5.07;;;2.85;;
63259;SDS011;49390;51.380;0.098;2023-07-24T00:57:57;7.13;;;2.88;;
63259;SDS011;49390;51.380;0.098;2023-07-24T01:00:26;6.43;;;3.30;;
63259;SDS011;49390;51.380;0.098;2023-07-24T01:02:55;7.55;;;3.20;;
63259;SDS011;49390;51.380;0.098;2023-07-24T01:05:24;6.97;;;3.38;;
63259;SDS011;49390;51.380;0.098;2023-07-24T01:07:52;8.70;;;3.53;;
63259;SDS011;49390;51.380;0.098;2023-07-24T01:10:20;7.03;;;2.97;;
63259;SDS011;49390;51.380;0.098;2023-07-24T01:15:38;5.63;;;3.08;;
63259;SDS011;49390;51.380;0.098;2023-07-24T01:18:32;7.25;;;3.20;;
63259;SDS011;49390;51.380;0.098;2023-07-24T01:21:04;6.88;;;3.03;;
63259;SDS011;49390;51.380;0.098;2023-07-24T01:26:26;7.85;;;3.22;;
63259;SDS011;49390;51.380;0.098;2023-07-24T01:28:57;6.47;;;3.38;;
63259;SDS011;49390;51.380;0.098;2023-07-24T01:31:25;6.97;;;3.40;;
63259;SDS011;49390;51.380;0.098;2023-07-24T01:33:53;7.35;;;3.17;;
63259;SDS011;49390;51.380;0.098;2023-07-24T01:36:21;6.20;;;3.30;;
63259;SDS011;49390;51.380;0.098;2023-07-24T01:38:49;5.60;;;3.17;;
63259;SDS011;49390;51.380;0.098;2023-07-24T01:41:18;8.25;;;3.30;;
63259;SDS011;49390;51.380;0.098;2023-07-24T01:43:47;8.73;;;3.85;;
63259;SDS011;49390;51.380;0.098;2023-07-24T01:46:15;9.70;;;3.75;;
63259;SDS011;49390;51.380;0.098;2023-07-24T01:48:43;6.63;;;3.03;;
63259;SDS011;49390;51.380;0.098;2023-07-24T01:51:11;7.05;;;3.30;;
63259;SDS011;49390;51.380;0.098;2023-07-24T01:53:40;6.10;;;2.92;;
63259;SDS011;49390;51.380;0.098;2023-07-24T01:56:08;7.82;;;3.50;;
63259;SDS011;49390;51.380;0.098;2023-07-24T01:58:36;5.43;;;3.08;;
63259;SDS011;49390;51.380;0.098;2023-07-24T02:01:03;8.27;;;3.30;;
63259;SDS011;49390;51.380;0.098;2023-07-24T02:03:31;8.13;;;3.38;;
63259;SDS011;49390;51.380;0.098;2023-07-24T02:05:59;5.60;;;2.88;;
63259;SDS011;49390;51.380;0.098;2023-07-24T02:08:28;9.07;;;3.50;;
63259;SDS011;49390;51.380;0.098;2023-07-24T02:10:55;6.40;;;3.17;;
63259;SDS011;49390;51.380;0.098;2023-07-24T02:13:26;6.50;;;3.37;;
63259;SDS011;49390;51.380;0.098;2023-07-24T02:15:53;10.25;;;3.83;;
63259;SDS011;49390;51.380;0.098;2023-07-24T02:18:22;6.65;;;3.05;;
63259;SDS011;49390;51.380;0.098;2023-07-24T02:20:51;5.50;;;3.63;;
63259;SDS011;49390;51.380;0.098;2023-07-24T02:23:20;6.32;;;3.00;;
63259;SDS011;49390;51.380;0.098;2023-07-24T02:25:51;7.55;;;3.30;;
63259;SDS011;49390;51.380;0.098;2023-07-24T02:28:20;7.10;;;3.47;;
63259;SDS011;49390;51.380;0.098;2023-07-24T02:30:48;8.35;;;3.33;;
63259;SDS011;49390;51.380;0.098;2023-07-24T02:33:16;8.95;;;3.75;;
63259;SDS011;49390;51.380;0.098;2023-07-24T02:35:44;6.00;;;3.08;;
63259;SDS011;49390;51.380;0.098;2023-07-24T02:38:14;6.88;;;3.28;;
63259;SDS011;49390;51.380;0.098;2023-07-24T02:40:43;7.78;;;3.60;;
63259;SDS011;49390;51.380;0.098;2023-07-24T02:43:11;8.20;;;3.60;;
63259;SDS011;49390;51.380;0.098;2023-07-24T02:45:39;7.35;;;3.17;;
63259;SDS011;49390;51.380;0.098;2023-07-24T02:48:07;8.65;;;3.58;;
63259;SDS011;49390;51.380;0.098;2023-07-24T02:50:35;7.90;;;3.47;;
63259;SDS011;49390;51.380;0.098;2023-07-24T02:53:03;6.45;;;3.60;;
63259;SDS011;49390;51.380;0.098;2023-07-24T02:55:31;8.27;;;3.30;;
63259;SDS011;49390;51.380;0.098;2023-07-24T02:58:00;5.78;;;3.17;;
63259;SDS011;49390;51.380;0.098;2023-07-24T03:00:27;7.50;;;3.28;;
63259;SDS011;49390;51.380;0.098;2023-07-24T03:02:56;7.38;;;3.13;;
63259;SDS011;49390;51.380;0.098;2023-07-24T03:05:24;7.90;;;3.17;;
63259;SDS011;49390;51.380;0.098;2023-07-24T03:07:52;8.02;;;3.53;;
63259;SDS011;49390;51.380;0.098;2023-07-24T03:10:19;7.70;;;3.05;;
63259;SDS011;49390;51.380;0.098;2023-07-24T03:12:48;7.90;;;3.00;;
63259;SDS011;49390;51.380;0.098;2023-07-24T03:15:18;7.07;;;3.20;;
63259;SDS011;49390;51.380;0.098;2023-07-24T03:17:46;5.43;;;3.17;;
63259;SDS011;49390;51.380;0.098;2023-07-24T03:20:15;8.13;;;3.63;;
63259;SDS011;49390;51.380;0.098;2023-07-24T03:22:45;6.38;;;3.20;;
63259;SDS011;49390;51.380;0.098;2023-07-24T03:25:13;7.35;;;3.22;;
63259;SDS011;49390;51.380;0.098;2023-07-24T03:27:41;10.38;;;3.78;;
63259;SDS011;49390;51.380;0.098;2023-07-24T03:30:09;6.72;;;3.30;;
63259;SDS011;49390;51.380;0.098;2023-07-24T03:32:38;6.97;;;3.22;;
63259;SDS011;49390;51.380;0.098;2023-07-24T03:35:06;6.63;;;3.00;;
63259;SDS011;49390;51.380;0.098;2023-07-24T03:37:35;8.85;;;3.60;;
63259;SDS011;49390;51.380;0.098;2023-07-24T03:40:05;9.00;;;3.38;;
63259;SDS011;49390;51.380;0.098;2023-07-24T03:42:34;6.22;;;3.20;;
63259;SDS011;49390;51.380;0.098;2023-07-24T03:45:02;7.53;;;3.20;;
63259;SDS011;49390;51.380;0.098;2023-07-24T03:47:31;6.15;;;3.00;;
63259;SDS011;49390;51.380;0.098;2023-07-24T03:49:59;6.60;;;3.00;;
63259;SDS011;49390;51.380;0.098;2023-07-24T03:54:42;4.85;;;2.95;;
63259;SDS011;49390;51.380;0.098;2023-07-24T03:57:12;9.40;;;3.13;;
63259;SDS011;49390;51.380;0.098;2023-07-24T03:59:40;7.22;;;2.90;;
63259;SDS011;49390;51.380;0.098;2023-07-24T04:02:08;5.97;;;2.85;;
63259;SDS011;49390;51.380;0.098;2023-07-24T04:04:37;6.45;;;3.20;;
63259;SDS011;49390;51.380;0.098;2023-07-24T04:07:05;5.93;;;2.90;;
63259;SDS011;49390;51.380;0.098;2023-07-24T04:09:33;7.63;;;2.80;;
63259;SDS011;49390;51.380;0.098;2023-07-24T04:12:01;8.25;;;3.25;;
63259;SDS011;49390;51.380;0.098;2023-07-24T04:14:29;5.82;;;3.20;;
63259;SDS011;49390;51.380;0.098;2023-07-24T04:16:57;6.60;;;3.08;;
63259;SDS011;49390;51.380;0.098;2023-07-24T04:19:25;5.53;;;2.88;;
63259;SDS011;49390;51.380;0.098;2023-07-24T04:21:53;6.78;;;3.03;;
63259;SDS011;49390;51.380;0.098;2023-07-24T04:24:21;8.80;;;3.03;;
63259;SDS011;49390;51.380;0.098;2023-07-24T04:26:49;6.35;;;3.10;;
63259;SDS011;49390;51.380;0.098;2023-07-24T04:29:19;6.30;;;3.30;;
63259;SDS011;49390;51.380;0.098;2023-07-24T04:31:51;7.45;;;3.03;;
63259;SDS011;49390;51.380;0.098;2023-07-24T04:34:19;6.05;;;3.30;;
63259;SDS011;49390;51.380;0.098;2023-07-24T04:36:47;6.45;;;3.13;;
63259;SDS011;49390;51.380;0.098;2023-07-24T04:39:17;8.45;;;3.25;;
63259;SDS011;49390;51.380;0.098;2023-07-24T04:41:45;7.43;;;2.95;;
63259;SDS011;49390;51.380;0.098;2023-07-24T04:44:13;6.63;;;3.20;;
63259;SDS011;49390;51.380;0.098;2023-07-24T04:46:41;6.32;;;3.20;;
63259;SDS011;49390;51.380;0.098;2023-07-24T04:49:09;5.65;;;2.80;;
63259;SDS011;49390;51.380;0.098;2023-07-24T04:51:37;8.23;;;3.28;;
63259;SDS011;49390;51.380;0.098;2023-07-24T04:54:05;6.78;;;3.30;;
63259;SDS011;49390;51.380;0.098;2023-07-24T04:56:33;6.78;;;3.15;;
63259;SDS011;49390;51.380;0.098;2023-07-24T04:59:01;7.75;;;3.25;;
63259;SDS011;49390;51.380;0.098;2023-07-24T05:01:31;5.60;;;2.90;;
63259;SDS011;49390;51.380;0.098;2023-07-24T05:03:59;8.13;;;3.40;;
63259;SDS011;49390;51.380;0.098;2023-07-24T05:06:28;5.80;;;2.85;;
63259;SDS011;49390;51.380;0.098;2023-07-24T05:08:56;6.85;;;3.15;;
63259;SDS011;49390;51.380;0.098;2023-07-24T05:11:24;8.15;;;3.13;;
63259;SDS011;49390;51.380;0.098;2023-07-24T05:13:52;9.07;;;3.78;;
63259;SDS011;49390;51.380;0.098;2023-07-24T05:16:20;10.68;;;3.17;;
63259;SDS011;49390;51.380;0.098;2023-07-24T05:18:48;6.95;;;3.00;;
63259;SDS011;49390;51.380;0.098;2023-07-24T05:21:16;6.15;;;3.25;;
63259;SDS011;49390;51.380;0.098;2023-07-24T05:23:46;5.35;;;2.67;;
63259;SDS011;49390;51.380;0.098;2023-07-24T05:26:17;5.80;;;2.70;;
63259;SDS011;49390;51.380;0.098;2023-07-24T05:28:45;5.40;;;3.20;;
63259;SDS011;49390;51.380;0.098;2023-07-24T05:31:13;6.72;;;2.83;;
63259;SDS011;49390;51.380;0.098;2023-07-24T05:33:41;7.70;;;3.00;;
63259;SDS011;49390;51.380;0.098;2023-07-24T05:36:09;5.05;;;2.92;;
63259;SDS011;49390;51.380;0.098;2023-07-24T05:39:39;5.28;;;2.80;;
63259;SDS011;49390;51.380;0.098;2023-07-24T05:42:07;4.95;;;2.72;;
63259;SDS011;49390;51.380;0.098;2023-07-24T05:44:35;6.35;;;2.97;;
63259;SDS011;49390;51.380;0.098;2023-07-24T05:47:04;8.55;;;3.05;;
63259;SDS011;49390;51.380;0.098;2023-07-24T05:49:32;5.45;;;3.00;;
63259;SDS011;49390;51.380;0.098;2023-07-24T05:52:01;5.80;;;3.13;;
63259;SDS011;49390;51.380;0.098;2023-07-24T05:54:29;6.50;;;3.58;;
63259;SDS011;49390;51.380;0.098;2023-07-24T05:56:57;4.82;;;2.65;;
63259;SDS011;49390;51.380;0.098;2023-07-24T05:59:25;7.53;;;3.20;;
63259;SDS011;49390;51.380;0.098;2023-07-24T06:01:53;6.75;;;3.20;;
63259;SDS011;49390;51.380;0.098;2023-07-24T06:04:21;6.50;;;3.30;;
63259;SDS011;49390;51.380;0.098;2023-07-24T06:06:49;7.22;;;3.42;;
63259;SDS011;49390;51.380;0.098;2023-07-24T06:09:17;5.60;;;3.00;;
63259;SDS011;49390;51.380;0.098;2023-07-24T06:11:48;6.95;;;3.03;;
63259;SDS011;49390;51.380;0.098;2023-07-24T06:14:16;9.02;;;3.35;;
63259;SDS011;49390;51.380;0.098;2023-07-24T06:16:44;6.53;;;3.00;;
63259;SDS011;49390;51.380;0.098;2023-07-24T06:19:12;7.40;;;3.08;;
63259;SDS011;49390;51.380;0.098;2023-07-24T06:21:40;5.43;;;3.00;;
63259;SDS011;49390;51.380;0.098;2023-07-24T06:24:08;5.72;;;2.83;;
63259;SDS011;49390;51.380;0.098;2023-07-24T06:26:39;6.72;;;2.90;;
63259;SDS011;49390;51.380;0.098;2023-07-24T06:29:07;6.00;;;2.97;;
63259;SDS011;49390;51.380;0.098;2023-07-24T06:31:35;6.40;;;2.70;;
63259;SDS011;49390;51.380;0.098;2023-07-24T06:34:03;5.65;;;2.90;;
63259;SDS011;49390;51.380;0.098;2023-07-24T06:36:31;5.88;;;2.90;;
63259;SDS011;49390;51.380;0.098;2023-07-24T06:38:59;6.57;;;2.65;;
63259;SDS011;49390;51.380;0.098;2023-07-24T06:41:28;5.78;;;2.42;;
63259;SDS011;49390;51.380;0.098;2023-07-24T06:43:56;5.15;;;2.78;;
63259;SDS011;49390;51.380;0.098;2023-07-24T06:46:24;6.35;;;2.80;;
63259;SDS011;49390;51.380;0.098;2023-07-24T06:48:51;10.57;;;3.00;;
63259;SDS011;49390;51.380;0.098;2023-07-24T06:51:20;8.05;;;3.15;;
63259;SDS011;49390;51.380;0.098;2023-07-24T06:53:47;6.00;;;2.67;;
63259;SDS011;49390;51.380;0.098;2023-07-24T06:56:15;7.13;;;2.80;;
63259;SDS011;49390;51.380;0.098;2023-07-24T06:58:43;5.15;;;2.50;;
63259;SDS011;49390;51.380;0.098;2023-07-24T07:01:11;5.38;;;2.63;;
63259;SDS011;49390;51.380;0.098;2023-07-24T07:03:41;6.45;;;2.92;;
63259;SDS011;49390;51.380;0.098;2023-07-24T07:06:10;7.43;;;2.72;;
63259;SDS011;49390;51.380;0.098;2023-07-24T07:08:54;5.07;;;2.60;;
63259;SDS011;49390;51.380;0.098;2023-07-24T07:11:25;7.70;;;2.70;;
63259;SDS011;49390;51.380;0.098;2023-07-24T07:13:52;5.30;;;2.88;;
63259;SDS011;49390;51.380;0.098;2023-07-24T07:16:21;5.72;;;2.65;;
63259;SDS011;49390;51.380;0.098;2023-07-24T07:18:48;6.22;;;2.92;;
63259;SDS011;49390;51.380;0.098;2023-07-24T07:21:17;5.93;;;2.80;;
63259;SDS011;49390;51.380;0.098;2023-07-24T07:23:44;6.43;;;2.83;;
63259;SDS011;49390;51.380;0.098;2023-07-24T07:26:13;5.65;;;2.97;;
63259;SDS011;49390;51.380;0.098;2023-07-24T07:28:44;6.75;;;3.08;;
63259;SDS011;49390;51.380;0.098;2023-07-24T07:31:12;6.00;;;3.00;;
63259;SDS011;49390;51.380;0.098;2023-07-24T07:33:42;6.18;;;2.97;;
63259;SDS011;49390;51.380;0.098;2023-07-24T07:39:04;6.68;;;2.78;;
63259;SDS011;49390;51.380;0.098;2023-07-24T07:41:32;5.95;;;2.80;;
63259;SDS011;49390;51.380;0.098;2023-07-24T07:44:00;6.90;;;2.92;;
63259;SDS011;49390;51.380;0.098;2023-07-24T07:46:28;6.38;;;2.80;;
63259;SDS011;49390;51.380;0.098;2023-07-24T07:48:59;11.10;;;2.85;;
63259;SDS011;49390;51.380;0.098;2023-07-24T07:51:29;5.65;;;2.63;;
63259;SDS011;49390;51.380;0.098;2023-07-24T07:53:57;7.90;;;3.17;;
63259;SDS011;49390;51.380;0.098;2023-07-24T07:56:25;6.22;;;2.70;;
63259;SDS011;49390;51.380;0.098;2023-07-24T07:58:53;7.00;;;3.22;;
63259;SDS011;49390;51.380;0.098;2023-07-24T08:01:21;7.03;;;3.47;;
63259;SDS011;49390;51.380;0.098;2023-07-24T08:03:50;6.00;;;3.10;;
63259;SDS011;49390;51.380;0.098;2023-07-24T08:06:18;6.03;;;3.30;;
63259;SDS011;49390;51.380;0.098;2023-07-24T08:08:46;5.90;;;3.20;;
63259;SDS011;49390;51.380;0.098;2023-07-24T08:11:14;7.75;;;3.08;;
63259;SDS011;49390;51.380;0.098;2023-07-24T08:13:42;6.47;;;3.33;;
63259;SDS011;49390;51.380;0.098;2023-07-24T08:16:14;8.48;;;3.13;;
63259;SDS011;49390;51.380;0.098;2023-07-24T08:18:48;6.47;;;3.20;;
63259;SDS011;49390;51.380;0.098;2023-07-24T08:21:16;7.70;;;3.47;;
63259;SDS011;49390;51.380;0.098;2023-07-24T08:23:44;6.63;;;3.40;;
63259;SDS011;49390;51.380;0.098;2023-07-24T08:26:12;6.10;;;3.15;;
63259;SDS011;49390;51.380;0.098;2023-07-24T08:28:40;8.40;;;3.30;;
63259;SDS011;49390;51.380;0.098;2023-07-24T08:31:09;6.72;;;3.90;;
63259;SDS011;49390;51.380;0.098;2023-07-24T08:33:38;11.05;;;4.32;;
63259;SDS011;49390;51.380;0.098;2023-07-24T08:36:07;8.52;;;3.70;;
63259;SDS011;49390;51.380;0.098;2023-07-24T08:38:38;6.68;;;3.67;;
63259;SDS011;49390;51.380;0.098;2023-07-24T08:41:12;7.78;;;3.85;;
63259;SDS011;49390;51.380;0.098;2023-07-24T08:43:43;7.18;;;3.63;;
63259;SDS011;49390;51.380;0.098;2023-07-24T08:46:12;7.68;;;3.90;;
63259;SDS011;49390;51.380;0.098;2023-07-24T08:48:40;6.82;;;4.25;;
63259;SDS011;49390;51.380;0.098;2023-07-24T08:51:13;9.82;;;4.07;;
63259;SDS011;49390;51.380;0.098;2023-07-24T08:53:51;7.35;;;3.80;;
63259;SDS011;49390;51.380;0.098;2023-07-24T08:56:20;6.57;;;4.13;;
63259;SDS011;49390;51.380;0.098;2023-07-24T08:58:48;6.72;;;3.30;;
63259;SDS011;49390;51.380;0.098;2023-07-24T09:01:16;8.50;;;4.00;;
63259;SDS011;49390;51.380;0.098;2023-07-24T09:03:44;7.20;;;4.10;;
63259;SDS011;49390;51.380;0.098;2023-07-24T09:06:15;5.97;;;3.55;;
63259;SDS011;49390;51.380;0.098;2023-07-24T09:08:43;9.82;;;3.85;;
63259;SDS011;49390;51.380;0.098;2023-07-24T09:11:13;6.03;;;3.58;;
63259;SDS011;49390;51.380;0.098;2023-07-24T09:13:42;4.88;;;2.63;;
63259;SDS011;49390;51.380;0.098;2023-07-24T09:16:20;5.15;;;2.60;;
63259;SDS011;49390;51.380;0.098;2023-07-24T09:18:53;4.43;;;2.30;;
63259;SDS011;49390;51.380;0.098;2023-07-24T09:21:27;4.18;;;2.35;;
63259;SDS011;49390;51.380;0.098;2023-07-24T09:23:56;3.97;;;2.20;;
63259;SDS011;49390;51.380;0.098;2023-07-24T09:26:25;3.40;;;2.00;;
63259;SDS011;49390;51.380;0.098;2023-07-24T09:28:53;4.75;;;2.10;;
63259;SDS011;49390;51.380;0.098;2023-07-24T09:31:21;3.97;;;2.28;;
63259;SDS011;49390;51.380;0.098;2023-07-24T09:34:00;4.75;;;2.50;;
63259;SDS011;49390;51.380;0.098;2023-07-24T09:36:38;3.85;;;2.63;;
63259;SDS011;49390;51.380;0.098;2023-07-24T09:39:06;5.55;;;2.80;;
63259;SDS011;49390;51.380;0.098;2023-07-24T09:41:38;4.97;;;2.50;;
63259;SDS011;49390;51.380;0.098;2023-07-24T09:44:11;5.63;;;2.50;;
63259;SDS011;49390;51.380;0.098;2023-07-24T09:46:41;5.05;;;2.85;;
63259;SDS011;49390;51.380;0.098;2023-07-24T09:49:28;8.10;;;3.03;;
63259;SDS011;49390;51.380;0.098;2023-07-24T09:51:56;6.00;;;2.50;;
63259;SDS011;49390;51.380;0.098;2023-07-24T09:54:31;4.97;;;2.70;;
63259;SDS011;49390;51.380;0.098;2023-07-24T09:57:08;4.47;;;2.72;;
63259;SDS011;49390;51.380;0.098;2023-07-24T09:59:48;4.03;;;2.35;;
63259;SDS011;49390;51.380;0.098;2023-07-24T10:02:19;4.30;;;2.38;;
63259;SDS011;49390;51.380;0.098;2023-07-24T10:04:49;3.55;;;2.42;;
63259;SDS011;49390;51.380;0.098;2023-07-24T10:07:17;5.63;;;2.50;;
63259;SDS011;49390;51.380;0.098;2023-07-24T10:12:17;3.08;;;2.10;;
63259;SDS011;49390;51.380;0.098;2023-07-24T10:14:46;3.38;;;2.30;;
63259;SDS011;49390;51.380;0.098;2023-07-24T10:17:24;4.07;;;2.10;;
63259;SDS011;49390;51.380;0.098;2023-07-24T10:20:05;3.33;;;2.03;;
63259;SDS011;49390;51.380;0.098;2023-07-24T10:22:35;4.30;;;2.30;;
63259;SDS011;49390;51.380;0.098;2023-07-24T10:25:09;3.22;;;1.90;;
63259;SDS011;49390;51.380;0.098;2023-07-24T10:27:42;3.17;;;2.20;;
63259;SDS011;49390;51.380;0.098;2023-07-24T10:30:11;3.58;;;1.95;;
63259;SDS011;49390;51.380;0.098;2023-07-24T10:32:54;4.50;;;2.22;;
63259;SDS011;49390;51.380;0.098;2023-07-24T10:36:07;3.03;;;1.70;;
63259;SDS011;49390;51.380;0.098;2023-07-24T10:38:38;3.13;;;1.80;;
63259;SDS011;49390;51.380;0.098;2023-07-24T10:41:08;3.05;;;1.83;;
63259;SDS011;49390;51.380;0.098;2023-07-24T10:43:41;2.57;;;1.60;;
63259;SDS011;49390;51.380;0.098;2023-07-24T10:46:17;3.88;;;1.80;;
63259;SDS011;49390;51.380;0.098;2023-07-24T10:48:48;3.67;;;2.10;;
63259;SDS011;49390;51.380;0.098;2023-07-24T10:51:18;4.67;;;2.27;;
63259;SDS011;49390;51.380;0.098;2023-07-24T10:53:48;2.17;;;1.55;;
63259;SDS011;49390;51.380;0.098;2023-07-24T10:56:17;3.65;;;1.70;;
63259;SDS011;49390;51.380;0.098;2023-07-24T10:58:47;3.50;;;1.60;;
63259;SDS011;49390;51.380;0.098;2023-07-24T11:01:15;3.05;;;1.45;;
63259;SDS011;49390;51.380;0.098;2023-07-24T11:03:45;3.17;;;1.60;;
63259;SDS011;49390;51.380;0.098;2023-07-24T11:06:14;6.82;;;3.05;;
63259;SDS011;49390;51.380;0.098;2023-07-24T11:08:53;3.45;;;1.75;;
63259;SDS011;49390;51.380;0.098;2023-07-24T11:11:32;2.03;;;1.30;;
63259;SDS011;49390;51.380;0.098;2023-07-24T11:14:03;2.20;;;1.35;;
63259;SDS011;49390;51.380;0.098;2023-07-24T11:16:31;5.65;;;1.65;;
63259;SDS011;49390;51.380;0.098;2023-07-24T11:19:01;1.92;;;1.20;;
63259;SDS011;49390;51.380;0.098;2023-07-24T11:21:30;2.70;;;1.40;;
63259;SDS011;49390;51.380;0.098;2023-07-24T11:23:59;2.17;;;1.50;;
63259;SDS011;49390;51.380;0.098;2023-07-24T11:26:27;5.15;;;2.00;;
63259;SDS011;49390;51.380;0.098;2023-07-24T11:28:55;3.22;;;1.60;;
63259;SDS011;49390;51.380;0.098;2023-07-24T11:31:23;2.40;;;1.40;;
63259;SDS011;49390;51.380;0.098;2023-07-24T11:33:52;9.68;;;2.67;;
63259;SDS011;49390;51.380;0.098;2023-07-24T11:36:21;3.85;;;1.42;;
63259;SDS011;49390;51.380;0.098;2023-07-24T11:38:53;2.80;;;1.67;;
63259;SDS011;49390;51.380;0.098;2023-07-24T11:41:21;4.15;;;1.90;;
63259;SDS011;49390;51.380;0.098;2023-07-24T11:43:50;3.83;;;2.38;;
63259;SDS011;49390;51.380;0.098;2023-07-24T11:46:28;3.67;;;1.80;;
63259;SDS011;49390;51.380;0.098;2023-07-24T11:49:00;1.80;;;1.60;;
63259;SDS011;49390;51.380;0.098;2023-07-24T11:51:27;3.53;;;1.67;;
63259;SDS011;49390;51.380;0.098;2023-07-24T11:54:04;2.70;;;1.50;;
63259;SDS011;49390;51.380;0.098;2023-07-24T11:56:36;2.88;;;1.60;;
63259;SDS011;49390;51.380;0.098;2023-07-24T11:59:14;5.60;;;2.67;;
63259;SDS011;49390;51.380;0.098;2023-07-24T12:01:46;2.90;;;1.67;;
63259;SDS011;49390;51.380;0.098;2023-07-24T12:04:18;3.47;;;1.33;;
63259;SDS011;49390;51.380;0.098;2023-07-24T12:06:47;2.35;;;1.45;;
63259;SDS011;49390;51.380;0.098;2023-07-24T12:09:17;4.10;;;2.20;;
63259;SDS011;49390;51.380;0.098;2023-07-24T12:11:45;2.75;;;1.60;;
63259;SDS011;49390;51.380;0.098;2023-07-24T12:14:16;2.85;;;1.58;;
63259;SDS011;49390;51.380;0.098;2023-07-24T12:16:44;4.00;;;2.00;;
63259;SDS011;49390;51.380;0.098;2023-07-24T12:19:12;3.95;;;2.08;;
63259;SDS011;49390;51.380;0.098;2023-07-24T12:21:40;2.72;;;1.88;;
63259;SDS011;49390;51.380;0.098;2023-07-24T12:24:08;3.60;;;1.85;;
63259;SDS011;49390;51.380;0.098;2023-07-24T12:26:36;3.15;;;1.77;;
63259;SDS011;49390;51.380;0.098;2023-07-24T12:29:05;3.22;;;2.00;;
63259;SDS011;49390;51.380;0.098;2023-07-24T12:31:32;3.05;;;1.80;;
63259;SDS011;49390;51.380;0.098;2023-07-24T12:34:01;4.15;;;1.90;;
63259;SDS011;49390;51.380;0.098;2023-07-24T12:36:30;2.42;;;1.92;;
63259;SDS011;49390;51.380;0.098;2023-07-24T12:38:58;4.82;;;2.33;;
63259;SDS011;49390;51.380;0.098;2023-07-24T12:41:26;3.53;;;1.90;;
63259;SDS011;49390;51.380;0.098;2023-07-24T12:43:54;3.40;;;1.80;;
63259;SDS011;49390;51.380;0.098;2023-07-24T12:46:22;4.20;;;1.77;;
63259;SDS011;49390;51.380;0.098;2023-07-24T12:48:50;3.40;;;1.70;;
63259;SDS011;49390;51.380;0.098;2023-07-24T12:51:18;4.80;;;2.10;;
63259;SDS011;49390;51.380;0.098;2023-07-24T12:53:46;4.97;;;1.85;;
63259;SDS011;49390;51.380;0.098;2023-07-24T12:56:34;3.20;;;1.80;;
63259;SDS011;49390;51.380;0.098;2023-07-24T12:59:02;3.22;;;1.77;;
63259;SDS011;49390;51.380;0.098;2023-07-24T13:01:30;2.28;;;1.60;;
63259;SDS011;49390;51.380;0.098;2023-07-24T13:03:59;1.73;;;1.50;;
63259;SDS011;49390;51.380;0.098;2023-07-24T13:06:27;4.82;;;2.10;;
63259;SDS011;49390;51.380;0.098;2023-07-24T13:08:55;3.63;;;2.22;;
63259;SDS011;49390;51.380;0.098;2023-07-24T13:11:23;3.97;;;2.30;;
63259;SDS011;49390;51.380;0.098;2023-07-24T13:13:51;3.28;;;1.92;;
63259;SDS011;49390;51.380;0.098;2023-07-24T13:16:22;4.57;;;2.55;;
63259;SDS011;49390;51.380;0.098;2023-07-24T13:18:51;3.83;;;2.15;;
63259;SDS011;49390;51.380;0.098;2023-07-24T13:21:19;5.35;;;2.20;;
63259;SDS011;49390;51.380;0.098;2023-07-24T13:23:47;4.97;;;2.20;;
63259;SDS011;49390;51.380;0.098;2023-07-24T13:26:15;2.85;;;1.95;;
63259;SDS011;49390;51.380;0.098;2023-07-24T13:28:43;8.77;;;2.30;;
63259;SDS011;49390;51.380;0.098;2023-07-24T13:33:43;4.88;;;2.10;;
63259;SDS011;49390;51.380;0.098;2023-07-24T13:36:11;6.07;;;2.10;;
63259;SDS011;49390;51.380;0.098;2023-07-24T13:38:39;3.15;;;2.05;;
63259;SDS011;49390;51.380;0.098;2023-07-24T13:41:08;4.00;;;2.03;;
63259;SDS011;49390;51.380;0.098;2023-07-24T13:43:38;6.18;;;2.58;;
63259;SDS011;49390;51.380;0.098;2023-07-24T13:46:06;4.78;;;2.30;;
63259;SDS011;49390;51.380;0.098;2023-07-24T13:48:35;4.18;;;2.53;;
63259;SDS011;49390;51.380;0.098;2023-07-24T13:51:04;5.63;;;2.28;;
63259;SDS011;49390;51.380;0.098;2023-07-24T13:53:32;3.65;;;1.90;;
63259;SDS011;49390;51.380;0.098;2023-07-24T13:56:00;5.25;;;2.65;;
63259;SDS011;49390;51.380;0.098;2023-07-24T13:58:28;5.03;;;2.28;;
63259;SDS011;49390;51.380;0.098;2023-07-24T14:00:56;4.22;;;2.00;;
63259;SDS011;49390;51.380;0.098;2023-07-24T14:03:24;4.10;;;2.30;;
63259;SDS011;49390;51.380;0.098;2023-07-24T14:05:56;5.47;;;2.08;;
63259;SDS011;49390;51.380;0.098;2023-07-24T14:08:27;5.10;;;2.90;;
63259;SDS011;49390;51.380;0.098;2023-07-24T14:10:55;4.15;;;2.25;;
63259;SDS011;49390;51.380;0.098;2023-07-24T14:13:23;4.30;;;2.33;;
63259;SDS011;49390;51.380;0.098;2023-07-24T14:15:51;8.00;;;3.83;;
63259;SDS011;49390;51.380;0.098;2023-07-24T14:18:19;6.47;;;3.30;;
63259;SDS011;49390;51.380;0.098;2023-07-24T14:20:47;5.07;;;2.80;;
63259;SDS011;49390;51.380;0.098;2023-07-24T14:23:16;5.35;;;2.50;;
63259;SDS011;49390;51.380;0.098;2023-07-24T14:25:44;3.92;;;2.28;;
63259;SDS011;49390;51.380;0.098;2023-07-24T14:28:12;5.40;;;2.47;;
63259;SDS011;49390;51.380;0.098;2023-07-24T14:30:40;6.63;;;2.75;;
63259;SDS011;49390;51.380;0.098;2023-07-24T14:33:08;5.55;;;2.40;;
63259;SDS011;49390;51.380;0.098;2023-07-24T14:35:36;5.18;;;2.45;;
63259;SDS011;49390;51.380;0.098;2023-07-24T14:38:04;5.32;;;2.83;;
63259;SDS011;49390;51.380;0.098;2023-07-24T14:40:32;5.03;;;2.83;;
63259;SDS011;49390;51.380;0.098;2023-07-24T14:43:01;6.05;;;3.20;;
63259;SDS011;49390;51.380;0.098;2023-07-24T14:45:32;5.78;;;2.67;;
63259;SDS011;49390;51.380;0.098;2023-07-24T14:48:00;6.20;;;3.17;;
63259;SDS011;49390;51.380;0.098;2023-07-24T14:50:28;4.10;;;2.38;;
63259;SDS011;49390;51.380;0.098;2023-07-24T14:52:56;5.25;;;2.60;;
63259;SDS011;49390;51.380;0.098;2023-07-24T14:55:24;6.32;;;2.80;;
63259;SDS011;49390;51.380;0.098;2023-07-24T14:57:53;6.53;;;2.78;;
63259;SDS011;49390;51.380;0.098;2023-07-24T15:00:23;6.00;;;2.58;;
63259;SDS011;49390;51.380;0.098;2023-07-24T15:02:51;4.27;;;2.60;;
63259;SDS011;49390;51.380;0.098;2023-07-24T15:05:19;6.38;;;2.67;;
63259;SDS011;49390;51.380;0.098;2023-07-24T15:07:47;6.80;;;2.58;;
63259;SDS011;49390;51.380;0.098;2023-07-24T15:10:15;4.40;;;2.33;;
63259;SDS011;49390;51.380;0.098;2023-07-24T15:12:43;9.48;;;3.17;;
63259;SDS011;49390;51.380;0.098;2023-07-24T15:15:11;5.68;;;2.60;;
63259;SDS011;49390;51.380;0.098;2023-07-24T15:17:41;5.90;;;2.78;;